sensor_id;sensor_type;location;lat;lon;timestamp;P1;durP1;ratioP1;P2;durP2;ratioP2
36373;SDS011;22399;51.346;12.372;2023-06-22T00:01:03;10.15;;;4.72;;
36373;SDS011;22399;51.346;12.372;2023-06-22T00:03:32;18.02;;;5.03;;
36373;SDS011;22399;51.346;12.372;2023-06-22T00:06:01;10.85;;;5.47;;
36373;SDS011;22399;51.346;12.372;2023-06-22T00:08:31;17.45;;;6.55;;
36373;SDS011;22399;51.346;12.372;2023-06-22T00:11:00;15.93;;;5.53;;
36373;SDS011;22399;51.346;12.372;2023-06-22T00:13:28;12.98;;;5.20;;
36373;SDS011;22399;51.346;12.372;2023-06-22T00:15:57;12.32;;;4.55;;
36373;SDS011;22399;51.346;12.372;2023-06-22T00:18:25;12.18;;;4.95;;
36373;SDS011;22399;51.346;12.372;2023-06-22T00:20:57;11.80;;;5.55;;
36373;SDS011;22399;51.346;12.372;2023-06-22T00:23:27;11.55;;;5.18;;
36373;SDS011;22399;51.346;12.372;2023-06-22T00:25:57;11.43;;;4.97;;
36373;SDS011;22399;51.346;12.372;2023-06-22T00:28:25;11.57;;;5.25;;
36373;SDS011;22399;51.346;12.372;2023-06-22T00:30:55;12.30;;;5.00;;
36373;SDS011;22399;51.346;12.372;2023-06-22T00:33:24;10.68;;;5.20;;
36373;SDS011;22399;51.346;12.372;2023-06-22T00:35:53;12.50;;;5.40;;
36373;SDS011;22399;51.346;12.372;2023-06-22T00:38:21;9.80;;;5.57;;
36373;SDS011;22399;51.346;12.372;2023-06-22T00:40:50;12.55;;;5.75;;
36373;SDS011;22399;51.346;12.372;2023-06-22T00:43:21;14.75;;;5.95;;
36373;SDS011;22399;51.346;12.372;2023-06-22T00:45:49;13.82;;;5.82;;
36373;SDS011;22399;51.346;12.372;2023-06-22T00:48:18;12.55;;;5.38;;
36373;SDS011;22399;51.346;12.372;2023-06-22T00:50:47;14.50;;;5.63;;
36373;SDS011;22399;51.346;12.372;2023-06-22T00:53:16;10.68;;;5.25;;
36373;SDS011;22399;51.346;12.372;2023-06-22T00:55:46;10.85;;;5.10;;
36373;SDS011;22399;51.346;12.372;2023-06-22T00:58:18;15.90;;;5.47;;
36373;SDS011;22399;51.346;12.372;2023-06-22T01:00:49;13.65;;;5.47;;
36373;SDS011;22399;51.346;12.372;2023-06-22T01:03:17;18.83;;;5.30;;
36373;SDS011;22399;51.346;12.372;2023-06-22T01:05:47;12.38;;;5.07;;
36373;SDS011;22399;51.346;12.372;2023-06-22T01:08:21;12.30;;;5.30;;
36373;SDS011;22399;51.346;12.372;2023-06-22T01:10:59;9.48;;;4.75;;
36373;SDS011;22399;51.346;12.372;2023-06-22T01:13:35;13.02;;;5.63;;
36373;SDS011;22399;51.346;12.372;2023-06-22T01:16:11;12.85;;;6.05;;
36373;SDS011;22399;51.346;12.372;2023-06-22T01:18:45;14.93;;;5.05;;
36373;SDS011;22399;51.346;12.372;2023-06-22T01:21:18;20.58;;;6.75;;
36373;SDS011;22399;51.346;12.372;2023-06-22T01:23:56;15.13;;;6.38;;
36373;SDS011;22399;51.346;12.372;2023-06-22T01:26:38;14.85;;;6.00;;
36373;SDS011;22399;51.346;12.372;2023-06-22T01:29:11;18.35;;;5.85;;
36373;SDS011;22399;51.346;12.372;2023-06-22T01:31:42;12.93;;;5.05;;
36373;SDS011;22399;51.346;12.372;2023-06-22T01:34:12;13.00;;;6.07;;
36373;SDS011;22399;51.346;12.372;2023-06-22T01:36:43;15.63;;;5.93;;
36373;SDS011;22399;51.346;12.372;2023-06-22T01:39:11;16.60;;;6.50;;
36373;SDS011;22399;51.346;12.372;2023-06-22T01:41:41;14.52;;;6.47;;
36373;SDS011;22399;51.346;12.372;2023-06-22T01:44:12;14.98;;;6.07;;
36373;SDS011;22399;51.346;12.372;2023-06-22T01:46:41;15.30;;;6.63;;
36373;SDS011;22399;51.346;12.372;2023-06-22T01:49:09;20.75;;;7.07;;
36373;SDS011;22399;51.346;12.372;2023-06-22T01:51:38;15.32;;;5.80;;
36373;SDS011;22399;51.346;12.372;2023-06-22T01:54:06;18.25;;;6.60;;
36373;SDS011;22399;51.346;12.372;2023-06-22T01:56:36;12.20;;;5.53;;
36373;SDS011;22399;51.346;12.372;2023-06-22T01:59:05;13.02;;;5.05;;
36373;SDS011;22399;51.346;12.372;2023-06-22T02:01:42;18.10;;;7.00;;
36373;SDS011;22399;51.346;12.372;2023-06-22T02:04:18;17.70;;;6.22;;
36373;SDS011;22399;51.346;12.372;2023-06-22T02:06:49;14.52;;;6.60;;
36373;SDS011;22399;51.346;12.372;2023-06-22T02:09:22;18.00;;;7.00;;
36373;SDS011;22399;51.346;12.372;2023-06-22T02:11:53;13.93;;;6.63;;
36373;SDS011;22399;51.346;12.372;2023-06-22T02:14:25;15.10;;;5.97;;
36373;SDS011;22399;51.346;12.372;2023-06-22T02:16:55;14.43;;;6.45;;
36373;SDS011;22399;51.346;12.372;2023-06-22T02:19:26;16.13;;;5.40;;
36373;SDS011;22399;51.346;12.372;2023-06-22T02:21:59;14.73;;;6.13;;
36373;SDS011;22399;51.346;12.372;2023-06-22T02:24:27;19.38;;;7.28;;
36373;SDS011;22399;51.346;12.372;2023-06-22T02:26:58;17.10;;;6.68;;
36373;SDS011;22399;51.346;12.372;2023-06-22T02:29:31;22.63;;;7.15;;
36373;SDS011;22399;51.346;12.372;2023-06-22T02:32:03;13.13;;;6.50;;
36373;SDS011;22399;51.346;12.372;2023-06-22T02:34:31;15.25;;;6.65;;
36373;SDS011;22399;51.346;12.372;2023-06-22T02:37:00;15.57;;;6.65;;
36373;SDS011;22399;51.346;12.372;2023-06-22T02:39:29;14.85;;;6.20;;
36373;SDS011;22399;51.346;12.372;2023-06-22T02:41:57;21.73;;;7.38;;
36373;SDS011;22399;51.346;12.372;2023-06-22T02:44:26;14.40;;;6.30;;
36373;SDS011;22399;51.346;12.372;2023-06-22T02:46:55;23.02;;;7.57;;
36373;SDS011;22399;51.346;12.372;2023-06-22T02:49:25;14.70;;;6.28;;
36373;SDS011;22399;51.346;12.372;2023-06-22T02:51:54;13.15;;;6.82;;
36373;SDS011;22399;51.346;12.372;2023-06-22T02:54:23;22.38;;;7.10;;
36373;SDS011;22399;51.346;12.372;2023-06-22T02:56:53;15.57;;;5.97;;
36373;SDS011;22399;51.346;12.372;2023-06-22T02:59:21;18.33;;;7.95;;
36373;SDS011;22399;51.346;12.372;2023-06-22T03:01:59;28.60;;;8.05;;
36373;SDS011;22399;51.346;12.372;2023-06-22T03:04:31;18.35;;;7.28;;
36373;SDS011;22399;51.346;12.372;2023-06-22T03:06:59;19.65;;;6.93;;
36373;SDS011;22399;51.346;12.372;2023-06-22T03:09:30;24.17;;;7.43;;
36373;SDS011;22399;51.346;12.372;2023-06-22T03:11:58;18.27;;;7.35;;
36373;SDS011;22399;51.346;12.372;2023-06-22T03:14:37;18.10;;;7.30;;
36373;SDS011;22399;51.346;12.372;2023-06-22T03:17:06;17.30;;;7.25;;
36373;SDS011;22399;51.346;12.372;2023-06-22T03:19:37;18.10;;;7.25;;
36373;SDS011;22399;51.346;12.372;2023-06-22T03:22:05;13.30;;;6.35;;
36373;SDS011;22399;51.346;12.372;2023-06-22T03:24:34;14.20;;;6.70;;
36373;SDS011;22399;51.346;12.372;2023-06-22T03:27:04;19.30;;;7.07;;
36373;SDS011;22399;51.346;12.372;2023-06-22T03:29:33;13.98;;;6.97;;
36373;SDS011;22399;51.346;12.372;2023-06-22T03:32:02;15.13;;;6.93;;
36373;SDS011;22399;51.346;12.372;2023-06-22T03:34:33;24.38;;;6.13;;
36373;SDS011;22399;51.346;12.372;2023-06-22T03:37:05;19.42;;;6.88;;
36373;SDS011;22399;51.346;12.372;2023-06-22T03:39:33;21.42;;;7.75;;
36373;SDS011;22399;51.346;12.372;2023-06-22T03:42:02;15.80;;;7.22;;
36373;SDS011;22399;51.346;12.372;2023-06-22T03:44:31;19.08;;;8.18;;
36373;SDS011;22399;51.346;12.372;2023-06-22T03:47:00;20.15;;;8.00;;
36373;SDS011;22399;51.346;12.372;2023-06-22T03:49:29;19.05;;;7.78;;
36373;SDS011;22399;51.346;12.372;2023-06-22T03:51:57;17.58;;;7.53;;
36373;SDS011;22399;51.346;12.372;2023-06-22T03:54:27;17.25;;;8.77;;
36373;SDS011;22399;51.346;12.372;2023-06-22T03:56:57;18.70;;;8.27;;
36373;SDS011;22399;51.346;12.372;2023-06-22T03:59:26;17.73;;;7.70;;
36373;SDS011;22399;51.346;12.372;2023-06-22T04:01:54;20.67;;;8.70;;
36373;SDS011;22399;51.346;12.372;2023-06-22T04:04:23;17.00;;;7.25;;
36373;SDS011;22399;51.346;12.372;2023-06-22T04:06:51;15.85;;;7.57;;
36373;SDS011;22399;51.346;12.372;2023-06-22T04:09:20;20.08;;;8.07;;
36373;SDS011;22399;51.346;12.372;2023-06-22T04:11:50;26.85;;;8.23;;
36373;SDS011;22399;51.346;12.372;2023-06-22T04:14:18;17.13;;;7.60;;
36373;SDS011;22399;51.346;12.372;2023-06-22T04:16:46;19.95;;;8.07;;
36373;SDS011;22399;51.346;12.372;2023-06-22T04:19:15;17.15;;;6.78;;
36373;SDS011;22399;51.346;12.372;2023-06-22T04:21:44;17.17;;;7.35;;
36373;SDS011;22399;51.346;12.372;2023-06-22T04:24:15;16.85;;;6.28;;
36373;SDS011;22399;51.346;12.372;2023-06-22T04:26:43;16.00;;;7.47;;
36373;SDS011;22399;51.346;12.372;2023-06-22T04:29:15;15.50;;;6.40;;
36373;SDS011;22399;51.346;12.372;2023-06-22T04:31:43;20.42;;;8.02;;
36373;SDS011;22399;51.346;12.372;2023-06-22T04:34:15;16.15;;;7.45;;
36373;SDS011;22399;51.346;12.372;2023-06-22T04:36:43;16.30;;;7.07;;
36373;SDS011;22399;51.346;12.372;2023-06-22T04:39:12;22.02;;;6.78;;
36373;SDS011;22399;51.346;12.372;2023-06-22T04:41:40;18.52;;;6.32;;
36373;SDS011;22399;51.346;12.372;2023-06-22T04:44:12;20.95;;;7.38;;
36373;SDS011;22399;51.346;12.372;2023-06-22T04:46:52;17.30;;;7.15;;
36373;SDS011;22399;51.346;12.372;2023-06-22T04:51:59;16.90;;;6.32;;
36373;SDS011;22399;51.346;12.372;2023-06-22T04:54:28;15.50;;;6.13;;
36373;SDS011;22399;51.346;12.372;2023-06-22T04:56:59;14.77;;;6.45;;
36373;SDS011;22399;51.346;12.372;2023-06-22T04:59:28;19.75;;;6.93;;
36373;SDS011;22399;51.346;12.372;2023-06-22T05:01:59;17.42;;;6.88;;
36373;SDS011;22399;51.346;12.372;2023-06-22T05:04:29;17.55;;;7.55;;
36373;SDS011;22399;51.346;12.372;2023-06-22T05:06:59;16.52;;;7.22;;
36373;SDS011;22399;51.346;12.372;2023-06-22T05:09:28;18.27;;;7.78;;
36373;SDS011;22399;51.346;12.372;2023-06-22T05:11:57;17.90;;;7.70;;
36373;SDS011;22399;51.346;12.372;2023-06-22T05:14:26;17.90;;;8.15;;
36373;SDS011;22399;51.346;12.372;2023-06-22T05:16:54;19.15;;;7.03;;
36373;SDS011;22399;51.346;12.372;2023-06-22T05:19:26;18.65;;;7.80;;
36373;SDS011;22399;51.346;12.372;2023-06-22T05:22:00;21.70;;;7.78;;
36373;SDS011;22399;51.346;12.372;2023-06-22T05:24:29;21.00;;;7.82;;
36373;SDS011;22399;51.346;12.372;2023-06-22T05:26:57;25.75;;;8.23;;
36373;SDS011;22399;51.346;12.372;2023-06-22T05:29:26;16.27;;;7.10;;
36373;SDS011;22399;51.346;12.372;2023-06-22T05:31:54;16.77;;;7.53;;
36373;SDS011;22399;51.346;12.372;2023-06-22T05:34:23;18.42;;;7.13;;
36373;SDS011;22399;51.346;12.372;2023-06-22T05:36:53;30.38;;;7.60;;
36373;SDS011;22399;51.346;12.372;2023-06-22T05:39:21;35.35;;;9.00;;
36373;SDS011;22399;51.346;12.372;2023-06-22T05:41:50;16.75;;;8.75;;
36373;SDS011;22399;51.346;12.372;2023-06-22T05:44:18;29.35;;;8.63;;
36373;SDS011;22399;51.346;12.372;2023-06-22T05:46:47;22.13;;;7.35;;
36373;SDS011;22399;51.346;12.372;2023-06-22T05:49:15;30.00;;;8.32;;
36373;SDS011;22399;51.346;12.372;2023-06-22T05:51:44;17.65;;;7.78;;
36373;SDS011;22399;51.346;12.372;2023-06-22T05:54:14;15.45;;;7.13;;
36373;SDS011;22399;51.346;12.372;2023-06-22T05:56:44;15.77;;;7.03;;
36373;SDS011;22399;51.346;12.372;2023-06-22T05:59:13;17.20;;;6.60;;
36373;SDS011;22399;51.346;12.372;2023-06-22T06:01:41;14.63;;;7.18;;
36373;SDS011;22399;51.346;12.372;2023-06-22T06:04:10;20.05;;;7.95;;
36373;SDS011;22399;51.346;12.372;2023-06-22T06:06:39;17.25;;;6.20;;
36373;SDS011;22399;51.346;12.372;2023-06-22T06:09:08;11.43;;;6.13;;
36373;SDS011;22399;51.346;12.372;2023-06-22T06:11:39;15.65;;;6.47;;
36373;SDS011;22399;51.346;12.372;2023-06-22T06:14:09;23.90;;;6.55;;
36373;SDS011;22399;51.346;12.372;2023-06-22T06:16:37;14.80;;;5.68;;
36373;SDS011;22399;51.346;12.372;2023-06-22T06:19:06;14.10;;;5.95;;
36373;SDS011;22399;51.346;12.372;2023-06-22T06:21:34;13.98;;;5.53;;
36373;SDS011;22399;51.346;12.372;2023-06-22T06:24:03;11.02;;;5.57;;
36373;SDS011;22399;51.346;12.372;2023-06-22T06:26:32;20.00;;;6.13;;
36373;SDS011;22399;51.346;12.372;2023-06-22T06:29:03;21.08;;;6.10;;
36373;SDS011;22399;51.346;12.372;2023-06-22T06:31:32;12.77;;;5.55;;
36373;SDS011;22399;51.346;12.372;2023-06-22T06:34:00;14.38;;;5.40;;
36373;SDS011;22399;51.346;12.372;2023-06-22T06:36:28;13.82;;;5.93;;
36373;SDS011;22399;51.346;12.372;2023-06-22T06:38:57;10.10;;;4.93;;
36373;SDS011;22399;51.346;12.372;2023-06-22T06:41:25;17.60;;;4.80;;
36373;SDS011;22399;51.346;12.372;2023-06-22T06:43:53;14.38;;;5.07;;
36373;SDS011;22399;51.346;12.372;2023-06-22T06:46:23;22.30;;;9.07;;
36373;SDS011;22399;51.346;12.372;2023-06-22T06:48:52;11.57;;;5.03;;
36373;SDS011;22399;51.346;12.372;2023-06-22T06:51:20;13.02;;;5.18;;
36373;SDS011;22399;51.346;12.372;2023-06-22T06:53:49;10.77;;;4.80;;
36373;SDS011;22399;51.346;12.372;2023-06-22T06:56:17;8.52;;;4.32;;
36373;SDS011;22399;51.346;12.372;2023-06-22T06:58:46;12.13;;;5.05;;
36373;SDS011;22399;51.346;12.372;2023-06-22T07:01:15;14.23;;;5.30;;
36373;SDS011;22399;51.346;12.372;2023-06-22T07:03:49;10.85;;;5.22;;
36373;SDS011;22399;51.346;12.372;2023-06-22T07:06:17;8.65;;;4.75;;
36373;SDS011;22399;51.346;12.372;2023-06-22T07:08:45;11.70;;;4.50;;
36373;SDS011;22399;51.346;12.372;2023-06-22T07:11:14;12.02;;;4.60;;
36373;SDS011;22399;51.346;12.372;2023-06-22T07:13:42;10.70;;;5.13;;
36373;SDS011;22399;51.346;12.372;2023-06-22T07:16:11;9.13;;;4.82;;
36373;SDS011;22399;51.346;12.372;2023-06-22T07:18:39;10.70;;;5.28;;
36373;SDS011;22399;51.346;12.372;2023-06-22T07:21:09;7.90;;;4.32;;
36373;SDS011;22399;51.346;12.372;2023-06-22T07:23:38;9.68;;;4.75;;
36373;SDS011;22399;51.346;12.372;2023-06-22T07:26:06;13.05;;;4.43;;
36373;SDS011;22399;51.346;12.372;2023-06-22T07:28:35;10.82;;;5.15;;
36373;SDS011;22399;51.346;12.372;2023-06-22T07:31:04;9.98;;;4.35;;
36373;SDS011;22399;51.346;12.372;2023-06-22T07:33:33;9.57;;;4.47;;
36373;SDS011;22399;51.346;12.372;2023-06-22T07:36:02;6.78;;;3.70;;
36373;SDS011;22399;51.346;12.372;2023-06-22T07:38:36;10.23;;;5.03;;
36373;SDS011;22399;51.346;12.372;2023-06-22T07:41:04;11.00;;;4.97;;
36373;SDS011;22399;51.346;12.372;2023-06-22T07:43:33;10.27;;;4.50;;
36373;SDS011;22399;51.346;12.372;2023-06-22T07:46:03;10.02;;;4.85;;
36373;SDS011;22399;51.346;12.372;2023-06-22T07:48:32;7.72;;;4.43;;
36373;SDS011;22399;51.346;12.372;2023-06-22T07:51:01;9.98;;;4.72;;
36373;SDS011;22399;51.346;12.372;2023-06-22T07:53:29;12.80;;;5.03;;
36373;SDS011;22399;51.346;12.372;2023-06-22T07:55:59;8.88;;;4.43;;
36373;SDS011;22399;51.346;12.372;2023-06-22T07:58:33;7.25;;;4.00;;
36373;SDS011;22399;51.346;12.372;2023-06-22T08:01:02;8.82;;;4.47;;
36373;SDS011;22399;51.346;12.372;2023-06-22T08:03:33;10.70;;;5.07;;
36373;SDS011;22399;51.346;12.372;2023-06-22T08:06:02;11.32;;;4.55;;
36373;SDS011;22399;51.346;12.372;2023-06-22T08:08:31;14.68;;;4.45;;
36373;SDS011;22399;51.346;12.372;2023-06-22T08:11:01;10.80;;;4.32;;
36373;SDS011;22399;51.346;12.372;2023-06-22T08:13:29;9.80;;;4.65;;
36373;SDS011;22399;51.346;12.372;2023-06-22T08:15:58;7.65;;;4.15;;
36373;SDS011;22399;51.346;12.372;2023-06-22T08:18:27;8.55;;;4.60;;
36373;SDS011;22399;51.346;12.372;2023-06-22T08:20:56;8.32;;;3.97;;
36373;SDS011;22399;51.346;12.372;2023-06-22T08:23:24;7.32;;;4.30;;
36373;SDS011;22399;51.346;12.372;2023-06-22T08:25:53;7.93;;;4.35;;
36373;SDS011;22399;51.346;12.372;2023-06-22T08:28:23;9.35;;;4.47;;
36373;SDS011;22399;51.346;12.372;2023-06-22T08:30:52;8.07;;;4.40;;
36373;SDS011;22399;51.346;12.372;2023-06-22T08:33:22;10.80;;;5.05;;
36373;SDS011;22399;51.346;12.372;2023-06-22T08:35:55;8.40;;;4.00;;
36373;SDS011;22399;51.346;12.372;2023-06-22T08:38:24;9.60;;;4.75;;
36373;SDS011;22399;51.346;12.372;2023-06-22T08:40:53;7.03;;;4.30;;
36373;SDS011;22399;51.346;12.372;2023-06-22T08:43:21;8.93;;;4.72;;
36373;SDS011;22399;51.346;12.372;2023-06-22T08:45:51;7.30;;;3.97;;
36373;SDS011;22399;51.346;12.372;2023-06-22T08:48:19;8.85;;;4.32;;
36373;SDS011;22399;51.346;12.372;2023-06-22T08:50:48;7.22;;;4.18;;
36373;SDS011;22399;51.346;12.372;2023-06-22T08:53:16;10.23;;;4.85;;
36373;SDS011;22399;51.346;12.372;2023-06-22T08:55:45;8.98;;;4.35;;
36373;SDS011;22399;51.346;12.372;2023-06-22T08:58:14;11.55;;;4.40;;
36373;SDS011;22399;51.346;12.372;2023-06-22T09:00:43;10.05;;;4.28;;
36373;SDS011;22399;51.346;12.372;2023-06-22T09:03:12;9.45;;;4.47;;
36373;SDS011;22399;51.346;12.372;2023-06-22T09:05:40;12.75;;;4.22;;
36373;SDS011;22399;51.346;12.372;2023-06-22T09:08:10;6.85;;;3.90;;
36373;SDS011;22399;51.346;12.372;2023-06-22T09:10:39;6.85;;;4.35;;
36373;SDS011;22399;51.346;12.372;2023-06-22T09:13:07;7.80;;;3.58;;
36373;SDS011;22399;51.346;12.372;2023-06-22T09:15:36;8.20;;;4.22;;
36373;SDS011;22399;51.346;12.372;2023-06-22T09:18:06;7.53;;;3.78;;
36373;SDS011;22399;51.346;12.372;2023-06-22T09:20:37;7.88;;;3.55;;
36373;SDS011;22399;51.346;12.372;2023-06-22T09:23:06;8.82;;;4.05;;
36373;SDS011;22399;51.346;12.372;2023-06-22T09:25:34;9.15;;;3.70;;
36373;SDS011;22399;51.346;12.372;2023-06-22T09:28:03;8.00;;;3.40;;
36373;SDS011;22399;51.346;12.372;2023-06-22T09:30:31;6.68;;;3.55;;
36373;SDS011;22399;51.346;12.372;2023-06-22T09:33:00;9.40;;;3.88;;
36373;SDS011;22399;51.346;12.372;2023-06-22T09:35:30;6.20;;;3.35;;
36373;SDS011;22399;51.346;12.372;2023-06-22T09:37:58;5.40;;;3.30;;
36373;SDS011;22399;51.346;12.372;2023-06-22T09:40:27;7.13;;;3.33;;
36373;SDS011;22399;51.346;12.372;2023-06-22T09:42:55;7.75;;;3.63;;
36373;SDS011;22399;51.346;12.372;2023-06-22T09:45:24;7.63;;;3.25;;
36373;SDS011;22399;51.346;12.372;2023-06-22T09:47:52;10.23;;;3.80;;
36373;SDS011;22399;51.346;12.372;2023-06-22T09:50:21;9.20;;;3.33;;
36373;SDS011;22399;51.346;12.372;2023-06-22T09:52:51;7.00;;;3.90;;
36373;SDS011;22399;51.346;12.372;2023-06-22T09:55:22;7.93;;;3.30;;
36373;SDS011;22399;51.346;12.372;2023-06-22T09:57:50;4.68;;;2.65;;
36373;SDS011;22399;51.346;12.372;2023-06-22T10:00:20;5.85;;;3.15;;
36373;SDS011;22399;51.346;12.372;2023-06-22T10:02:49;6.88;;;3.70;;
36373;SDS011;22399;51.346;12.372;2023-06-22T10:05:18;7.88;;;3.15;;
36373;SDS011;22399;51.346;12.372;2023-06-22T10:07:47;12.35;;;3.70;;
36373;SDS011;22399;51.346;12.372;2023-06-22T10:10:17;8.82;;;4.35;;
36373;SDS011;22399;51.346;12.372;2023-06-22T10:12:48;11.68;;;3.50;;
36373;SDS011;22399;51.346;12.372;2023-06-22T10:15:23;9.13;;;3.38;;
36373;SDS011;22399;51.346;12.372;2023-06-22T10:17:54;6.40;;;3.05;;
36373;SDS011;22399;51.346;12.372;2023-06-22T10:20:23;6.50;;;2.72;;
36373;SDS011;22399;51.346;12.372;2023-06-22T10:22:52;5.18;;;3.17;;
36373;SDS011;22399;51.346;12.372;2023-06-22T10:25:26;5.10;;;2.63;;
36373;SDS011;22399;51.346;12.372;2023-06-22T10:27:55;3.92;;;2.58;;
36373;SDS011;22399;51.346;12.372;2023-06-22T10:30:24;12.65;;;3.83;;
36373;SDS011;22399;51.346;12.372;2023-06-22T10:32:53;5.22;;;3.50;;
36373;SDS011;22399;51.346;12.372;2023-06-22T10:35:21;7.88;;;3.55;;
36373;SDS011;22399;51.346;12.372;2023-06-22T10:37:50;7.95;;;3.63;;
36373;SDS011;22399;51.346;12.372;2023-06-22T10:40:19;8.43;;;3.35;;
36373;SDS011;22399;51.346;12.372;2023-06-22T10:42:49;10.45;;;3.83;;
36373;SDS011;22399;51.346;12.372;2023-06-22T10:45:17;4.50;;;2.95;;
36373;SDS011;22399;51.346;12.372;2023-06-22T10:47:46;11.88;;;2.83;;
36373;SDS011;22399;51.346;12.372;2023-06-22T10:50:15;5.05;;;2.47;;
36373;SDS011;22399;51.346;12.372;2023-06-22T10:52:43;4.82;;;2.83;;
36373;SDS011;22399;51.346;12.372;2023-06-22T10:55:12;11.68;;;3.80;;
36373;SDS011;22399;51.346;12.372;2023-06-22T10:57:41;5.03;;;2.80;;
36373;SDS011;22399;51.346;12.372;2023-06-22T11:00:13;7.50;;;3.80;;
36373;SDS011;22399;51.346;12.372;2023-06-22T11:02:43;6.13;;;3.22;;
36373;SDS011;22399;51.346;12.372;2023-06-22T11:05:12;5.57;;;3.00;;
36373;SDS011;22399;51.346;12.372;2023-06-22T11:07:41;11.52;;;2.95;;
36373;SDS011;22399;51.346;12.372;2023-06-22T11:12:43;8.02;;;3.05;;
36373;SDS011;22399;51.346;12.372;2023-06-22T11:15:14;8.60;;;2.78;;
36373;SDS011;22399;51.346;12.372;2023-06-22T11:17:42;7.15;;;3.53;;
36373;SDS011;22399;51.346;12.372;2023-06-22T11:20:11;5.85;;;2.97;;
36373;SDS011;22399;51.346;12.372;2023-06-22T11:22:40;9.70;;;4.28;;
36373;SDS011;22399;51.346;12.372;2023-06-22T11:25:09;4.97;;;3.15;;
36373;SDS011;22399;51.346;12.372;2023-06-22T11:27:38;5.95;;;3.10;;
36373;SDS011;22399;51.346;12.372;2023-06-22T11:30:08;5.53;;;2.88;;
36373;SDS011;22399;51.346;12.372;2023-06-22T11:32:38;5.43;;;2.72;;
36373;SDS011;22399;51.346;12.372;2023-06-22T11:35:07;7.88;;;3.00;;
36373;SDS011;22399;51.346;12.372;2023-06-22T11:37:35;6.47;;;2.95;;
36373;SDS011;22399;51.346;12.372;2023-06-22T11:40:04;12.00;;;3.17;;
36373;SDS011;22399;51.346;12.372;2023-06-22T11:42:35;7.78;;;4.22;;
36373;SDS011;22399;51.346;12.372;2023-06-22T11:45:04;6.05;;;3.40;;
36373;SDS011;22399;51.346;12.372;2023-06-22T11:47:35;7.82;;;3.80;;
36373;SDS011;22399;51.346;12.372;2023-06-22T11:50:06;4.32;;;2.67;;
36373;SDS011;22399;51.346;12.372;2023-06-22T11:52:35;7.38;;;3.47;;
36373;SDS011;22399;51.346;12.372;2023-06-22T11:55:04;6.53;;;3.33;;
36373;SDS011;22399;51.346;12.372;2023-06-22T11:57:33;9.25;;;3.25;;
36373;SDS011;22399;51.346;12.372;2023-06-22T12:00:03;8.57;;;3.20;;
36373;SDS011;22399;51.346;12.372;2023-06-22T12:02:42;6.53;;;3.95;;
36373;SDS011;22399;51.346;12.372;2023-06-22T12:05:13;5.88;;;3.20;;
36373;SDS011;22399;51.346;12.372;2023-06-22T12:07:42;10.38;;;3.40;;
36373;SDS011;22399;51.346;12.372;2023-06-22T12:10:10;16.98;;;3.33;;
36373;SDS011;22399;51.346;12.372;2023-06-22T12:12:39;6.10;;;3.22;;
36373;SDS011;22399;51.346;12.372;2023-06-22T12:15:08;7.90;;;3.38;;
36373;SDS011;22399;51.346;12.372;2023-06-22T12:17:37;6.57;;;3.00;;
36373;SDS011;22399;51.346;12.372;2023-06-22T12:20:06;5.65;;;2.88;;
36373;SDS011;22399;51.346;12.372;2023-06-22T12:22:37;7.25;;;2.88;;
36373;SDS011;22399;51.346;12.372;2023-06-22T12:25:06;8.35;;;2.97;;
36373;SDS011;22399;51.346;12.372;2023-06-22T12:27:35;7.30;;;3.15;;
36373;SDS011;22399;51.346;12.372;2023-06-22T12:30:04;9.02;;;3.20;;
36373;SDS011;22399;51.346;12.372;2023-06-22T12:32:33;6.25;;;3.28;;
36373;SDS011;22399;51.346;12.372;2023-06-22T12:35:02;8.85;;;3.22;;
36373;SDS011;22399;51.346;12.372;2023-06-22T12:37:31;9.30;;;3.08;;
36373;SDS011;22399;51.346;12.372;2023-06-22T12:40:01;7.30;;;3.65;;
36373;SDS011;22399;51.346;12.372;2023-06-22T12:42:31;9.38;;;3.55;;
36373;SDS011;22399;51.346;12.372;2023-06-22T12:44:59;12.50;;;3.72;;
36373;SDS011;22399;51.346;12.372;2023-06-22T12:47:28;7.85;;;3.42;;
36373;SDS011;22399;51.346;12.372;2023-06-22T12:49:57;4.95;;;2.67;;
36373;SDS011;22399;51.346;12.372;2023-06-22T12:52:26;5.97;;;3.30;;
36373;SDS011;22399;51.346;12.372;2023-06-22T12:54:54;8.10;;;3.92;;
36373;SDS011;22399;51.346;12.372;2023-06-22T12:57:24;6.53;;;3.00;;
36373;SDS011;22399;51.346;12.372;2023-06-22T12:59:53;7.18;;;3.22;;
36373;SDS011;22399;51.346;12.372;2023-06-22T13:02:22;6.47;;;3.35;;
36373;SDS011;22399;51.346;12.372;2023-06-22T13:04:51;9.38;;;3.83;;
36373;SDS011;22399;51.346;12.372;2023-06-22T13:07:21;9.45;;;3.58;;
36373;SDS011;22399;51.346;12.372;2023-06-22T13:09:51;7.35;;;4.00;;
36373;SDS011;22399;51.346;12.372;2023-06-22T13:12:21;16.90;;;5.38;;
36373;SDS011;22399;51.346;12.372;2023-06-22T13:14:51;10.45;;;3.63;;
36373;SDS011;22399;51.346;12.372;2023-06-22T13:17:22;14.10;;;3.20;;
36373;SDS011;22399;51.346;12.372;2023-06-22T13:19:51;7.70;;;3.90;;
36373;SDS011;22399;51.346;12.372;2023-06-22T13:22:26;7.93;;;3.63;;
36373;SDS011;22399;51.346;12.372;2023-06-22T13:24:56;6.68;;;3.30;;
36373;SDS011;22399;51.346;12.372;2023-06-22T13:27:26;11.02;;;3.63;;
36373;SDS011;22399;51.346;12.372;2023-06-22T13:29:56;9.27;;;3.90;;
36373;SDS011;22399;51.346;12.372;2023-06-22T13:32:24;7.43;;;3.63;;
36373;SDS011;22399;51.346;12.372;2023-06-22T13:34:53;10.45;;;4.32;;
36373;SDS011;22399;51.346;12.372;2023-06-22T13:37:22;11.73;;;3.63;;
36373;SDS011;22399;51.346;12.372;2023-06-22T13:39:50;7.40;;;3.92;;
36373;SDS011;22399;51.346;12.372;2023-06-22T13:42:19;11.75;;;4.60;;
36373;SDS011;22399;51.346;12.372;2023-06-22T13:44:48;7.15;;;4.13;;
36373;SDS011;22399;51.346;12.372;2023-06-22T13:47:18;5.70;;;3.22;;
36373;SDS011;22399;51.346;12.372;2023-06-22T13:49:46;6.68;;;3.45;;
36373;SDS011;22399;51.346;12.372;2023-06-22T13:52:15;7.95;;;4.05;;
36373;SDS011;22399;51.346;12.372;2023-06-22T13:54:43;5.85;;;3.50;;
36373;SDS011;22399;51.346;12.372;2023-06-22T13:57:12;14.45;;;3.83;;
36373;SDS011;22399;51.346;12.372;2023-06-22T13:59:40;6.18;;;3.58;;
36373;SDS011;22399;51.346;12.372;2023-06-22T14:02:09;6.40;;;3.92;;
36373;SDS011;22399;51.346;12.372;2023-06-22T14:04:39;7.07;;;4.05;;
36373;SDS011;22399;51.346;12.372;2023-06-22T14:07:07;11.32;;;3.28;;
36373;SDS011;22399;51.346;12.372;2023-06-22T14:09:36;6.97;;;3.60;;
36373;SDS011;22399;51.346;12.372;2023-06-22T14:12:05;7.68;;;4.47;;
36373;SDS011;22399;51.346;12.372;2023-06-22T14:14:34;9.68;;;4.22;;
36373;SDS011;22399;51.346;12.372;2023-06-22T14:17:03;7.90;;;3.78;;
36373;SDS011;22399;51.346;12.372;2023-06-22T14:19:32;9.85;;;3.83;;
36373;SDS011;22399;51.346;12.372;2023-06-22T14:22:02;7.00;;;3.58;;
36373;SDS011;22399;51.346;12.372;2023-06-22T14:24:31;6.88;;;3.67;;
36373;SDS011;22399;51.346;12.372;2023-06-22T14:27:00;7.57;;;4.18;;
36373;SDS011;22399;51.346;12.372;2023-06-22T14:29:30;11.52;;;4.07;;
36373;SDS011;22399;51.346;12.372;2023-06-22T14:31:58;12.65;;;4.15;;
36373;SDS011;22399;51.346;12.372;2023-06-22T14:34:27;7.68;;;3.92;;
36373;SDS011;22399;51.346;12.372;2023-06-22T14:36:56;9.00;;;4.10;;
36373;SDS011;22399;51.346;12.372;2023-06-22T14:39:26;7.47;;;3.92;;
36373;SDS011;22399;51.346;12.372;2023-06-22T14:41:54;8.82;;;4.45;;
36373;SDS011;22399;51.346;12.372;2023-06-22T14:44:23;6.90;;;3.92;;